createdAt,value
2022-09-16T00:01:12.761Z,13.00
2022-09-16T00:03:41.443Z,13.00
2022-09-16T00:06:21.765Z,13.00
2022-09-16T00:08:50.102Z,12.90
2022-09-16T00:11:18.742Z,12.90
2022-09-16T00:13:47.199Z,12.80
2022-09-16T00:16:19.622Z,12.80
2022-09-16T00:18:48.040Z,12.70
2022-09-16T00:21:16.485Z,12.70
2022-09-16T00:23:45.890Z,12.70
2022-09-16T00:26:14.650Z,12.70
2022-09-16T00:28:42.791Z,12.70
2022-09-16T00:31:11.178Z,12.70
2022-09-16T00:33:39.294Z,12.70
2022-09-16T00:36:09.591Z,12.60
2022-09-16T00:38:38.010Z,12.60
2022-09-16T00:41:08.446Z,12.60
2022-09-16T00:43:54.712Z,12.60
2022-09-16T00:46:31.086Z,12.50
2022-09-16T00:49:01.734Z,12.50
2022-09-16T00:51:30.351Z,12.60
2022-09-16T00:54:03.177Z,12.60
2022-09-16T00:56:36.817Z,12.70
2022-09-16T00:59:08.384Z,12.70
2022-09-16T01:01:36.885Z,12.60
2022-09-16T01:04:11.208Z,12.70
2022-09-16T01:06:40.480Z,12.70
2022-09-16T01:09:08.685Z,12.70
2022-09-16T01:11:38.013Z,12.70
2022-09-16T01:14:24.936Z,12.80
2022-09-16T01:16:59.557Z,12.80
2022-09-16T01:19:42.446Z,12.90
2022-09-16T01:22:22.014Z,12.90
2022-09-16T01:25:01.107Z,12.90
2022-09-16T01:28:05.521Z,12.80
2022-09-16T01:30:56.388Z,12.80
2022-09-16T01:33:37.708Z,12.80
2022-09-16T01:36:17.629Z,12.80
2022-09-16T01:38:57.945Z,12.80
2022-09-16T01:41:33.548Z,12.80
2022-09-16T01:44:07.008Z,12.80
2022-09-16T01:46:48.858Z,12.80
2022-09-16T01:49:23.022Z,12.90
2022-09-16T01:52:00.269Z,12.90
2022-09-16T01:54:33.746Z,13.00
2022-09-16T01:57:06.503Z,13.00
2022-09-16T01:59:41.932Z,13.00
2022-09-16T02:02:17.555Z,12.90
2022-09-16T02:04:51.021Z,12.90
2022-09-16T02:07:24.384Z,12.90
2022-09-16T02:09:57.591Z,12.90
2022-09-16T02:12:29.173Z,12.90
2022-09-16T02:15:03.553Z,12.80
2022-09-16T02:17:38.574Z,12.80
2022-09-16T02:20:09.811Z,12.70
2022-09-16T02:22:40.985Z,12.70
2022-09-16T02:25:11.629Z,12.70
2022-09-16T02:27:42.381Z,12.60
2022-09-16T02:30:15.502Z,12.60
2022-09-16T02:32:48.556Z,12.70
2022-09-16T02:35:21.605Z,12.60
2022-09-16T02:37:53.883Z,12.60
2022-09-16T02:40:28.147Z,12.50
2022-09-16T02:42:57.484Z,12.50
2022-09-16T02:45:31.799Z,12.50
2022-09-16T02:48:06.673Z,12.40
2022-09-16T02:50:42.046Z,12.40
2022-09-16T02:53:17.993Z,12.40
2022-09-16T02:55:53.314Z,12.40
2022-09-16T02:58:21.544Z,12.30
2022-09-16T03:00:53.334Z,12.40
2022-09-16T03:03:23.063Z,12.30
2022-09-16T03:06:11.564Z,12.30
2022-09-16T03:08:40.452Z,12.40
2022-09-16T03:11:19.274Z,12.30
2022-09-16T03:13:55.744Z,12.20
2022-09-16T03:16:35.431Z,12.30
2022-09-16T03:19:16.000Z,12.30
2022-09-16T03:21:53.902Z,12.30
2022-09-16T03:24:31.715Z,12.30
2022-09-16T03:27:06.350Z,12.30
2022-09-16T03:29:42.564Z,12.20
2022-09-16T03:32:20.970Z,12.10
2022-09-16T03:34:54.618Z,12.10
2022-09-16T03:37:25.367Z,12.10
2022-09-16T03:39:56.273Z,12.00
2022-09-16T03:42:24.899Z,12.10
2022-09-16T03:44:53.486Z,12.10
2022-09-16T03:47:21.524Z,12.20
2022-09-16T03:49:50.868Z,12.10
2022-09-16T03:52:19.813Z,12.10
2022-09-16T03:54:47.920Z,12.10
2022-09-16T03:57:15.906Z,12.10
2022-09-16T03:59:43.906Z,12.10
2022-09-16T04:02:11.944Z,12.10
2022-09-16T04:04:40.108Z,12.00
2022-09-16T04:07:09.559Z,12.00
2022-09-16T04:09:38.183Z,12.00
2022-09-16T04:12:07.691Z,12.00
2022-09-16T04:14:35.868Z,11.90
2022-09-16T04:17:04.105Z,11.90
2022-09-16T04:19:33.092Z,12.00
2022-09-16T04:22:01.225Z,12.00
2022-09-16T04:24:30.881Z,12.00
2022-09-16T04:26:58.982Z,12.00
2022-09-16T04:29:27.781Z,12.00
2022-09-16T04:31:55.911Z,12.00
2022-09-16T04:34:23.872Z,12.00
2022-09-16T04:36:51.964Z,12.00
2022-09-16T04:39:19.973Z,11.90
2022-09-16T04:41:49.368Z,12.00
2022-09-16T04:44:17.564Z,12.00
2022-09-16T04:46:45.534Z,11.90
2022-09-16T04:49:13.760Z,11.90
2022-09-16T04:51:43.970Z,12.00
2022-09-16T04:54:12.668Z,12.00
2022-09-16T04:56:40.728Z,12.00
2022-09-16T04:59:11.789Z,12.00
2022-09-16T05:01:40.682Z,12.00
2022-09-16T05:04:09.006Z,12.00
2022-09-16T05:06:39.464Z,12.00
2022-09-16T05:09:08.091Z,12.00
2022-09-16T05:11:38.954Z,12.00
2022-09-16T05:14:13.787Z,12.00
2022-09-16T05:16:41.813Z,12.00
2022-09-16T05:19:13.093Z,12.00
2022-09-16T05:21:41.958Z,12.00
2022-09-16T05:24:11.851Z,12.00
2022-09-16T05:26:41.924Z,12.00
2022-09-16T05:29:14.073Z,12.00
2022-09-16T05:31:43.763Z,12.00
2022-09-16T05:34:14.626Z,12.00
2022-09-16T05:36:44.244Z,12.00
2022-09-16T05:39:28.432Z,12.00
2022-09-16T05:41:58.729Z,12.00
2022-09-16T05:44:29.254Z,12.00
2022-09-16T05:46:57.524Z,12.10
2022-09-16T05:49:25.765Z,12.10
2022-09-16T05:51:54.645Z,12.20
2022-09-16T05:54:25.064Z,12.20
2022-09-16T05:56:54.024Z,12.20
2022-09-16T05:59:23.479Z,12.20
2022-09-16T06:01:53.352Z,12.10
2022-09-16T06:04:21.412Z,12.20
2022-09-16T06:07:03.627Z,12.20
2022-09-16T06:09:31.584Z,12.20
2022-09-16T06:12:02.173Z,12.20
2022-09-16T06:14:31.131Z,12.30
2022-09-16T06:17:00.543Z,12.40
2022-09-16T06:19:28.876Z,12.40
2022-09-16T06:21:56.948Z,12.40
2022-09-16T06:24:25.003Z,12.40
2022-09-16T06:26:53.100Z,12.30
2022-09-16T06:29:21.147Z,12.40
2022-09-16T06:31:49.119Z,12.50
2022-09-16T06:34:19.368Z,12.50
2022-09-16T06:36:47.800Z,12.50
2022-09-16T06:39:17.324Z,12.60
2022-09-16T06:41:45.951Z,12.60
2022-09-16T06:44:13.985Z,12.70
2022-09-16T06:46:42.052Z,12.70
2022-09-16T06:49:12.921Z,12.80
2022-09-16T06:51:42.320Z,12.90
2022-09-16T06:54:12.695Z,12.90
2022-09-16T06:56:41.492Z,12.90
2022-09-16T06:59:10.688Z,13.00
2022-09-16T07:01:38.833Z,13.20
2022-09-16T07:04:11.025Z,13.30
2022-09-16T07:07:12.729Z,13.40
2022-09-16T07:09:28.801Z,13.50
2022-09-16T07:11:56.838Z,13.40
2022-09-16T07:14:24.885Z,13.20
2022-09-16T07:16:53.381Z,13.30
2022-09-16T07:19:21.889Z,13.20
2022-09-16T07:21:49.888Z,13.20
2022-09-16T07:24:18.072Z,13.30
2022-09-16T07:26:47.893Z,13.50
2022-09-16T07:29:19.101Z,13.60
2022-09-16T07:31:47.631Z,13.80
2022-09-16T07:34:15.700Z,13.90
2022-09-16T07:36:45.476Z,14.00
2022-09-16T07:39:15.236Z,14.00
2022-09-16T07:41:48.360Z,14.20
2022-09-16T07:44:20.009Z,14.50
2022-09-16T07:46:50.984Z,14.50
2022-09-16T07:49:19.358Z,14.70
2022-09-16T07:51:47.443Z,14.60
2022-09-16T07:54:16.995Z,14.80
2022-09-16T07:56:45.454Z,14.70
2022-09-16T07:59:18.617Z,14.60
2022-09-16T08:01:49.835Z,14.50
2022-09-16T08:04:18.941Z,14.60
2022-09-16T08:06:47.089Z,14.80
2022-09-16T08:09:37.804Z,14.90
2022-09-16T08:12:06.151Z,15.10
2022-09-16T08:14:34.335Z,15.10
2022-09-16T08:17:03.888Z,15.20
2022-09-16T08:19:32.028Z,15.30
2022-09-16T08:22:00.125Z,15.40
2022-09-16T08:24:28.400Z,15.60
2022-09-16T08:29:29.675Z,15.30
2022-09-16T08:31:57.699Z,15.30
2022-09-16T08:34:27.283Z,15.30
2022-09-16T08:36:55.361Z,15.40
2022-09-16T08:39:23.383Z,15.40
2022-09-16T08:42:37.889Z,15.60
2022-09-16T08:45:24.686Z,15.70
2022-09-16T08:48:07.918Z,15.60
2022-09-16T08:50:41.654Z,15.70
2022-09-16T08:53:16.234Z,15.70
2022-09-16T08:55:48.174Z,15.70
2022-09-16T08:58:18.587Z,15.60
2022-09-16T09:00:49.956Z,15.70
2022-09-16T09:03:31.931Z,16.00
2022-09-16T09:06:14.872Z,15.70
2022-09-16T09:08:53.600Z,15.70
2022-09-16T09:11:28.071Z,15.60
2022-09-16T09:14:09.556Z,15.80
2022-09-16T09:16:44.285Z,16.10
2022-09-16T09:19:23.451Z,16.20
2022-09-16T09:22:00.601Z,16.40
2022-09-16T09:24:56.969Z,16.70
2022-09-16T09:27:29.224Z,16.70
2022-09-16T09:30:11.313Z,16.80
2022-09-16T09:33:04.779Z,16.90
2022-09-16T09:35:50.036Z,16.80
2022-09-16T09:38:44.708Z,16.60
2022-09-16T09:41:15.602Z,16.60
2022-09-16T09:43:48.962Z,16.40
2022-09-16T09:46:23.323Z,16.40
2022-09-16T09:48:59.236Z,16.50
2022-09-16T09:51:32.784Z,16.60
2022-09-16T09:54:06.046Z,16.40
2022-09-16T09:56:38.587Z,16.20
2022-09-16T09:59:18.211Z,16.20
2022-09-16T10:01:46.347Z,16.10
2022-09-16T10:04:16.419Z,16.20
2022-09-16T10:06:46.340Z,16.20
2022-09-16T10:09:17.980Z,16.10
2022-09-16T10:11:55.011Z,16.00
2022-09-16T10:14:31.144Z,15.90
2022-09-16T10:17:02.798Z,15.80
2022-09-16T10:19:32.674Z,16.10
2022-09-16T10:22:11.842Z,17.30
2022-09-16T10:24:43.126Z,19.40
2022-09-16T10:27:22.302Z,19.90
2022-09-16T10:30:05.128Z,19.30
2022-09-16T10:32:34.876Z,18.50
2022-09-16T10:35:08.360Z,17.70
2022-09-16T10:37:38.059Z,17.40
2022-09-16T10:40:18.388Z,16.90
2022-09-16T10:42:48.883Z,16.60
2022-09-16T10:45:23.602Z,16.40
2022-09-16T10:47:54.892Z,16.60
2022-09-16T10:50:23.293Z,16.50
2022-09-16T10:52:51.293Z,16.50
2022-09-16T10:55:27.020Z,16.40
2022-09-16T10:58:06.873Z,16.60
2022-09-16T11:00:45.576Z,16.80
2022-09-16T11:04:00.494Z,18.10
2022-09-16T11:06:49.388Z,19.80
2022-09-16T11:09:25.931Z,20.40
2022-09-16T11:12:19.003Z,20.50
2022-09-16T11:14:59.187Z,19.80
2022-09-16T11:17:41.068Z,18.60
2022-09-16T11:20:48.743Z,18.10
2022-09-16T11:23:28.113Z,17.00
2022-09-16T11:26:01.583Z,15.20
2022-09-16T11:28:49.286Z,14.30
2022-09-16T11:31:31.952Z,14.00
2022-09-16T11:34:07.746Z,13.80
2022-09-16T11:36:44.102Z,13.50
2022-09-16T11:39:26.416Z,13.30
2022-09-16T11:42:02.995Z,13.10
2022-09-16T11:44:45.461Z,12.90
2022-09-16T11:47:40.909Z,12.70
2022-09-16T11:50:31.783Z,12.70
2022-09-16T11:53:46.807Z,12.70
2022-09-16T11:56:19.640Z,12.70
2022-09-16T11:58:51.880Z,13.00
2022-09-16T12:01:30.303Z,13.30
2022-09-16T12:04:06.094Z,13.10
2022-09-16T12:06:41.964Z,13.20
2022-09-16T12:09:15.793Z,13.50
2022-09-16T12:11:47.799Z,13.60
2022-09-16T12:14:19.746Z,13.80
2022-09-16T12:16:53.526Z,13.70
2022-09-16T12:19:24.880Z,13.60
2022-09-16T12:21:58.240Z,13.60
2022-09-16T12:24:36.065Z,13.60
2022-09-16T12:27:08.119Z,13.60
2022-09-16T12:29:44.325Z,13.50
2022-09-16T12:32:36.669Z,13.60
2022-09-16T12:35:12.175Z,13.90
2022-09-16T12:37:47.500Z,14.30
2022-09-16T12:40:20.031Z,14.20
2022-09-16T12:43:20.745Z,14.00
2022-09-16T12:46:23.467Z,13.90
2022-09-16T12:49:22.231Z,14.10
2022-09-16T12:52:21.396Z,14.30
2022-09-16T12:55:23.547Z,14.50
2022-09-16T12:58:08.351Z,14.90
2022-09-16T13:00:42.641Z,15.10
2022-09-16T13:03:16.781Z,15.10
2022-09-16T13:05:51.136Z,15.20
2022-09-16T13:08:23.969Z,15.20
2022-09-16T13:11:47.200Z,15.40
2022-09-16T13:13:56.166Z,16.20
2022-09-16T13:16:35.719Z,16.90
2022-09-16T13:19:28.046Z,16.60
2022-09-16T13:22:00.363Z,16.50
2022-09-16T13:24:36.042Z,16.00
2022-09-16T13:27:23.986Z,15.80
2022-09-16T13:29:52.061Z,15.80
2022-09-16T13:32:38.300Z,15.30
2022-09-16T13:35:23.720Z,15.20
2022-09-16T13:37:55.546Z,14.70
2022-09-16T13:40:26.413Z,14.30
2022-09-16T13:43:13.628Z,14.10
2022-09-16T13:45:43.692Z,13.90
2022-09-16T13:48:14.186Z,13.80
2022-09-16T13:50:45.795Z,13.60
2022-09-16T13:53:22.357Z,13.60
2022-09-16T13:55:52.344Z,13.50
2022-09-16T13:58:27.188Z,13.50
2022-09-16T14:01:05.229Z,13.50
2022-09-16T14:03:43.988Z,13.50
2022-09-16T14:06:30.847Z,13.40
2022-09-16T14:09:10.730Z,13.40
2022-09-16T14:11:46.916Z,13.40
2022-09-16T14:14:36.127Z,13.90
2022-09-16T14:17:06.890Z,14.40
2022-09-16T14:19:38.623Z,14.70
2022-09-16T14:22:16.910Z,15.10
2022-09-16T14:24:50.371Z,15.20
2022-09-16T14:27:34.115Z,15.10
2022-09-16T14:30:04.939Z,15.30
2022-09-16T14:32:35.582Z,15.20
2022-09-16T14:35:09.765Z,15.30
2022-09-16T14:37:40.023Z,15.50
2022-09-16T14:40:17.833Z,15.30
2022-09-16T14:42:51.139Z,15.20
2022-09-16T14:48:07.763Z,14.80
2022-09-16T14:50:40.993Z,14.50
2022-09-16T14:53:34.830Z,14.40
2022-09-16T14:56:05.969Z,14.60
2022-09-16T14:58:38.638Z,14.50
2022-09-16T15:01:12.314Z,14.60
2022-09-16T15:03:46.225Z,14.80
2022-09-16T15:06:20.351Z,14.90
2022-09-16T15:08:53.372Z,14.90
2022-09-16T15:11:46.989Z,14.90
2022-09-16T15:14:16.891Z,15.10
2022-09-16T15:16:49.411Z,15.10
2022-09-16T15:19:22.589Z,15.20
2022-09-16T15:21:51.422Z,15.20
2022-09-16T15:24:22.995Z,15.10
2022-09-16T15:26:53.724Z,14.70
2022-09-16T15:29:31.865Z,14.50
2022-09-16T15:32:18.081Z,14.40
2022-09-16T15:34:46.691Z,14.50
2022-09-16T15:37:34.472Z,14.70
2022-09-16T15:40:21.860Z,14.80
2022-09-16T15:43:06.663Z,14.80
2022-09-16T15:45:34.768Z,14.80
2022-09-16T15:48:06.379Z,14.90
2022-09-16T15:50:57.851Z,14.90
2022-09-16T15:53:42.857Z,14.90
2022-09-16T15:56:22.658Z,14.90
2022-09-16T15:58:55.446Z,14.80
2022-09-16T16:01:38.139Z,14.80
2022-09-16T16:04:09.634Z,14.70
2022-09-16T16:06:53.800Z,14.70
2022-09-16T16:09:37.091Z,14.60
2022-09-16T16:12:08.605Z,14.60
2022-09-16T16:14:40.008Z,14.50
2022-09-16T16:17:14.330Z,14.50
2022-09-16T16:19:43.624Z,14.60
2022-09-16T16:22:12.391Z,14.40
2022-09-16T16:24:41.181Z,14.40
2022-09-16T16:27:10.491Z,14.40
2022-09-16T16:29:39.834Z,14.40
2022-09-16T16:32:10.175Z,14.30
2022-09-16T16:34:39.726Z,14.20
2022-09-16T16:37:08.370Z,14.30
2022-09-16T16:39:36.864Z,14.30
2022-09-16T16:42:06.079Z,14.20
2022-09-16T16:44:34.236Z,14.20
2022-09-16T16:47:03.893Z,14.20
2022-09-16T16:49:31.989Z,14.10
2022-09-16T16:51:59.944Z,14.10
2022-09-16T16:54:29.107Z,14.10
2022-09-16T16:56:58.215Z,14.00
2022-09-16T16:59:27.028Z,14.00
2022-09-16T17:01:57.046Z,13.90
2022-09-16T17:04:26.907Z,13.90
2022-09-16T17:07:21.383Z,13.90
2022-09-16T17:09:44.201Z,13.90
2022-09-16T17:12:12.911Z,13.80
2022-09-16T17:14:42.124Z,13.70
2022-09-16T17:17:10.092Z,13.60
2022-09-16T17:19:39.453Z,13.60
2022-09-16T17:22:07.481Z,13.50
2022-09-16T17:24:35.549Z,13.40
2022-09-16T17:27:04.177Z,13.20
2022-09-16T17:29:32.403Z,13.20
2022-09-16T17:32:02.790Z,13.10
2022-09-16T17:34:31.296Z,13.10
2022-09-16T17:37:00.871Z,12.90
2022-09-16T17:39:29.004Z,12.90
2022-09-16T17:41:57.441Z,12.80
2022-09-16T17:44:25.697Z,12.80
2022-09-16T17:46:54.312Z,12.70
2022-09-16T17:49:24.668Z,12.60
2022-09-16T17:51:54.363Z,12.70
2022-09-16T17:54:23.789Z,12.70
2022-09-16T17:56:52.032Z,12.60
2022-09-16T17:59:20.425Z,12.60
2022-09-16T18:01:49.072Z,12.60
2022-09-16T18:04:17.092Z,12.50
2022-09-16T18:06:46.970Z,12.60
2022-09-16T18:09:17.235Z,12.60
2022-09-16T18:11:46.679Z,12.70
2022-09-16T18:14:14.950Z,12.70
2022-09-16T18:16:43.797Z,12.70
2022-09-16T18:19:12.086Z,12.70
2022-09-16T18:21:40.344Z,12.70
2022-09-16T18:24:11.088Z,12.60
2022-09-16T18:26:39.626Z,12.60
2022-09-16T18:29:11.760Z,12.60
2022-09-16T18:31:41.476Z,12.60
2022-09-16T18:34:09.775Z,12.70
2022-09-16T18:36:39.159Z,12.70
2022-09-16T18:39:08.581Z,12.60
2022-09-16T18:41:38.795Z,12.60
2022-09-16T18:44:13.791Z,12.60
2022-09-16T18:46:41.991Z,12.50
2022-09-16T18:49:12.900Z,12.40
2022-09-16T18:51:46.150Z,12.40
2022-09-16T18:54:19.345Z,12.40
2022-09-16T18:56:47.567Z,12.30
2022-09-16T18:59:22.019Z,12.20
2022-09-16T19:01:51.991Z,12.10
2022-09-16T19:04:21.962Z,12.10
2022-09-16T19:06:51.483Z,12.00
2022-09-16T19:09:20.761Z,12.00
2022-09-16T19:11:49.488Z,11.90
2022-09-16T19:14:20.966Z,11.90
2022-09-16T19:16:49.029Z,11.80
2022-09-16T19:19:17.238Z,11.70
2022-09-16T19:21:45.353Z,11.70
2022-09-16T19:24:15.657Z,11.60
2022-09-16T19:26:45.019Z,11.50
2022-09-16T19:29:15.324Z,11.50
2022-09-16T19:31:47.063Z,11.40
2022-09-16T19:34:16.712Z,11.40
2022-09-16T19:36:46.008Z,11.40
2022-09-16T19:39:14.923Z,11.40
2022-09-16T19:42:09.823Z,11.30
2022-09-16T19:44:37.829Z,11.20
2022-09-16T19:47:07.232Z,11.20
2022-09-16T19:49:35.225Z,11.20
2022-09-16T19:52:03.680Z,11.20
2022-09-16T19:54:31.693Z,11.10
2022-09-16T19:56:59.834Z,11.00
2022-09-16T19:59:27.834Z,11.00
2022-09-16T20:01:57.232Z,11.00
2022-09-16T20:04:26.844Z,11.00
2022-09-16T20:06:54.876Z,10.90
2022-09-16T20:09:22.982Z,10.90
2022-09-16T20:11:51.613Z,10.90
2022-09-16T20:14:22.408Z,10.90
2022-09-16T20:16:51.799Z,10.80
2022-09-16T20:19:21.062Z,10.80
2022-09-16T20:21:50.514Z,10.80
2022-09-16T20:24:20.776Z,10.80
2022-09-16T20:26:49.366Z,10.70
2022-09-16T20:29:18.246Z,10.70
2022-09-16T20:31:47.061Z,10.70
2022-09-16T20:34:16.480Z,10.70
2022-09-16T20:36:46.105Z,10.70
2022-09-16T20:39:16.162Z,10.60
2022-09-16T20:41:52.445Z,10.60
2022-09-16T20:44:20.506Z,10.60
2022-09-16T20:46:49.968Z,10.60
2022-09-16T20:49:20.092Z,10.60
2022-09-16T20:51:48.180Z,10.50
2022-09-16T20:54:17.860Z,10.60
2022-09-16T20:56:47.839Z,10.60
2022-09-16T20:59:17.676Z,10.50
2022-09-16T21:01:46.016Z,10.50
2022-09-16T21:04:16.032Z,10.50
2022-09-16T21:06:44.182Z,10.50
2022-09-16T21:09:14.201Z,10.50
2022-09-16T21:11:45.118Z,10.50
2022-09-16T21:14:16.189Z,10.50
2022-09-16T21:16:46.037Z,10.50
2022-09-16T21:19:15.387Z,10.40
2022-09-16T21:21:45.796Z,10.50
2022-09-16T21:24:14.084Z,10.40
2022-09-16T21:26:44.467Z,10.40
2022-09-16T21:29:15.301Z,10.40
2022-09-16T21:31:44.347Z,10.40
2022-09-16T21:34:14.923Z,10.40
2022-09-16T21:36:45.089Z,10.40
2022-09-16T21:39:14.133Z,10.40
2022-09-16T21:41:46.101Z,10.40
2022-09-16T21:44:14.935Z,10.40
2022-09-16T21:46:45.316Z,10.40
2022-09-16T21:49:18.140Z,10.30
2022-09-16T21:51:46.306Z,10.40
2022-09-16T21:54:19.732Z,10.40
2022-09-16T21:56:50.509Z,10.40
2022-09-16T21:59:19.701Z,10.30
2022-09-16T22:01:49.337Z,10.30
2022-09-16T22:04:21.836Z,10.40
2022-09-16T22:06:52.730Z,10.40
2022-09-16T22:09:20.937Z,10.40
2022-09-16T22:11:50.637Z,10.40
2022-09-16T22:14:19.081Z,10.40
2022-09-16T22:16:47.221Z,10.40
2022-09-16T22:19:17.204Z,10.40
2022-09-16T22:21:47.699Z,10.40
2022-09-16T22:24:19.861Z,10.40
2022-09-16T22:26:48.339Z,10.40
2022-09-16T22:29:17.763Z,10.40
2022-09-16T22:31:45.880Z,10.40
2022-09-16T22:34:13.954Z,10.40
2022-09-16T22:36:42.001Z,10.40
2022-09-16T22:39:14.107Z,10.40
2022-09-16T22:41:42.787Z,10.40
2022-09-16T22:44:10.845Z,10.40
2022-09-16T22:46:43.015Z,10.40
2022-09-16T22:49:11.962Z,10.40
2022-09-16T22:51:40.435Z,10.40
2022-09-16T22:54:09.204Z,10.50
2022-09-16T22:56:37.338Z,10.40
2022-09-16T22:59:08.207Z,10.50
2022-09-16T23:01:38.630Z,10.50
2022-09-16T23:04:09.875Z,10.50
2022-09-16T23:06:38.983Z,10.50
2022-09-16T23:09:08.621Z,10.50
2022-09-16T23:11:38.713Z,10.50
2022-09-16T23:14:07.169Z,10.50
2022-09-16T23:16:38.255Z,10.50
2022-09-16T23:19:09.271Z,10.50
2022-09-16T23:21:38.145Z,10.50
2022-09-16T23:24:08.196Z,10.50
2022-09-16T23:26:38.800Z,10.50
2022-09-16T23:29:09.228Z,10.60
2022-09-16T23:31:40.298Z,10.60
2022-09-16T23:34:13.778Z,10.60
2022-09-16T23:36:42.359Z,10.60
2022-09-16T23:39:13.181Z,10.60
2022-09-16T23:41:42.327Z,10.60
2022-09-16T23:44:13.467Z,10.60
2022-09-16T23:46:41.570Z,10.60
2022-09-16T23:49:11.777Z,10.60
2022-09-16T23:51:40.238Z,10.60
2022-09-16T23:54:08.220Z,10.60
2022-09-16T23:56:36.225Z,10.60
2022-09-16T23:59:04.407Z,10.60
